Time;durP1;ratioP1;P1;durP2;ratioP2;P2;SDS_P1;SDS_P2;PMS_P1;PMS_P2;Temp;Humidity;BMP_temperature;BMP_pressure;BME280_temperature;BME280_humidity;BME280_pressure;Samples;Min_cycle;Max_cycle;Signal;HPM_P1;HPM_P2
2024/01/21 00:00:12;;;;;;;9.25;5.47;;;;;;;;;;5029088;28;20021;-44
2024/01/21 00:02:39;;;;;;;8.98;5.30;;;;;;;;;;5027137;28;20606;-44
2024/01/21 00:05:05;;;;;;;8.80;5.22;;;;;;;;;;5029117;28;20025;-44
2024/01/21 00:07:31;;;;;;;8.88;5.20;;;;;;;;;;5029095;28;20021;-45
2024/01/21 00:09:57;;;;;;;8.93;5.30;;;;;;;;;;5029144;28;20075;-48
2024/01/21 00:12:23;;;;;;;8.73;5.20;;;;;;;;;;5028504;28;20406;-48
2024/01/21 00:14:49;;;;;;;8.07;4.80;;;;;;;;;;5029114;28;20033;-51
2024/01/21 00:17:17;;;;;;;8.50;5.00;;;;;;;;;;5029001;28;20029;-49
2024/01/21 00:19:42;;;;;;;10.00;6.43;;;;;;;;;;5029315;28;20041;-45
2024/01/21 00:22:08;;;;;;;8.90;5.30;;;;;;;;;;5028747;28;20072;-44
2024/01/21 00:24:34;;;;;;;8.77;5.20;;;;;;;;;;5049083;28;20028;-48
2024/01/21 00:27:00;;;;;;;8.60;5.13;;;;;;;;;;5049027;28;20032;-47
2024/01/21 00:29:26;;;;;;;8.90;5.30;;;;;;;;;;5048936;28;20402;-45
2024/01/21 00:31:52;;;;;;;9.10;5.40;;;;;;;;;;5040195;28;20032;-44
2024/01/21 00:34:18;;;;;;;9.05;5.32;;;;;;;;;;5048937;28;20025;-44
2024/01/21 00:36:44;;;;;;;8.85;5.25;;;;;;;;;;5048982;28;20391;-44
2024/01/21 00:39:10;;;;;;;9.00;5.30;;;;;;;;;;5048818;28;20064;-45
2024/01/21 00:41:36;;;;;;;9.02;5.40;;;;;;;;;;5072411;22;20044;-50
2024/01/21 00:44:02;;;;;;;8.57;5.10;;;;;;;;;;5068271;28;20074;-49
2024/01/21 00:46:29;;;;;;;9.07;5.35;;;;;;;;;;5067815;28;20142;-45
2024/01/21 00:48:55;;;;;;;9.25;5.50;;;;;;;;;;5066399;28;20028;-52
2024/01/21 00:51:21;;;;;;;9.38;5.50;;;;;;;;;;5074041;28;20112;-52
2024/01/21 00:53:47;;;;;;;9.30;5.50;;;;;;;;;;5089131;28;20166;-49
2024/01/21 00:56:13;;;;;;;9.32;5.50;;;;;;;;;;5090744;28;20024;-51
2024/01/21 00:58:39;;;;;;;9.23;5.43;;;;;;;;;;5091719;28;20416;-49
2024/01/21 01:01:05;;;;;;;9.23;5.50;;;;;;;;;;5093019;28;20056;-51
2024/01/21 01:03:31;;;;;;;9.23;5.43;;;;;;;;;;5074920;28;20052;-52
2024/01/21 01:05:59;;;;;;;9.20;5.50;;;;;;;;;;5075119;28;20020;-48
2024/01/21 01:08:25;;;;;;;8.97;5.33;;;;;;;;;;5075026;28;20023;-48
2024/01/21 01:10:51;;;;;;;9.55;5.70;;;;;;;;;;5074625;28;20269;-50
2024/01/21 01:13:17;;;;;;;9.60;5.90;;;;;;;;;;5092481;28;20024;-51
2024/01/21 01:15:43;;;;;;;9.23;5.43;;;;;;;;;;5092771;28;20024;-51
2024/01/21 01:18:09;;;;;;;9.40;5.50;;;;;;;;;;5092778;28;20031;-49
2024/01/21 01:20:35;;;;;;;9.20;5.40;;;;;;;;;;5092815;28;20044;-50
2024/01/21 01:23:01;;;;;;;9.25;5.45;;;;;;;;;;5074196;28;20066;-48
2024/01/21 01:25:27;;;;;;;9.75;5.75;;;;;;;;;;5092840;28;20028;-51
2024/01/21 01:27:53;;;;;;;9.63;5.72;;;;;;;;;;5092653;28;20045;-53
2024/01/21 01:30:19;;;;;;;9.85;5.80;;;;;;;;;;5093327;28;20057;-47
2024/01/21 01:32:45;;;;;;;9.90;5.90;;;;;;;;;;5093208;28;20020;-50
2024/01/21 01:35:11;;;;;;;9.50;5.63;;;;;;;;;;5074710;28;20047;-45
2024/01/21 01:37:37;;;;;;;9.70;5.72;;;;;;;;;;5093011;28;20051;-47
2024/01/21 01:40:03;;;;;;;9.70;5.80;;;;;;;;;;5092829;28;20144;-48
2024/01/21 01:42:29;;;;;;;9.73;5.70;;;;;;;;;;5091649;28;20032;-51
2024/01/21 01:44:56;;;;;;;9.43;5.60;;;;;;;;;;5074318;28;20627;-50
2024/01/21 01:47:22;;;;;;;9.57;5.65;;;;;;;;;;5066030;28;20040;-50
2024/01/21 01:49:48;;;;;;;9.50;5.60;;;;;;;;;;5092372;28;20028;-49
2024/01/21 01:52:16;;;;;;;9.27;5.57;;;;;;;;;;5081262;28;20162;-51
2024/01/21 01:54:42;;;;;;;9.45;5.60;;;;;;;;;;5054224;28;20024;-47
2024/01/21 01:57:10;;;;;;;9.23;5.47;;;;;;;;;;5054058;28;20024;-51
2024/01/21 01:59:37;;;;;;;9.23;5.43;;;;;;;;;;5084437;28;20381;-49
2024/01/21 02:02:03;;;;;;;9.32;5.50;;;;;;;;;;5091169;28;20031;-46
2024/01/21 02:04:29;;;;;;;8.68;5.20;;;;;;;;;;5073824;28;20027;-51
2024/01/21 02:06:55;;;;;;;8.57;5.10;;;;;;;;;;5091924;28;20026;-46
2024/01/21 02:09:21;;;;;;;9.18;5.47;;;;;;;;;;5091861;28;20382;-53
2024/01/21 02:11:47;;;;;;;8.90;5.30;;;;;;;;;;5090999;28;20030;-52
2024/01/21 02:14:13;;;;;;;9.60;5.60;;;;;;;;;;5056390;28;20107;-48
2024/01/21 02:16:39;;;;;;;9.25;5.47;;;;;;;;;;5079467;28;20486;-52
2024/01/21 02:19:11;;;;;;;9.90;6.22;;;;;;;;;;5071700;28;20028;-53
2024/01/21 02:21:37;;;;;;;9.20;5.45;;;;;;;;;;5083304;28;20035;-55
2024/01/21 02:24:03;;;;;;;9.55;5.63;;;;;;;;;;5073576;28;20020;-48
2024/01/21 02:26:29;;;;;;;9.90;5.82;;;;;;;;;;5091585;28;20385;-50
2024/01/21 02:28:55;;;;;;;9.32;5.50;;;;;;;;;;5091768;28;20023;-44
2024/01/21 02:31:21;;;;;;;9.40;5.55;;;;;;;;;;5090835;28;20491;-54
2024/01/21 02:33:47;;;;;;;9.45;5.60;;;;;;;;;;5091807;28;20027;-48
2024/01/21 02:36:13;;;;;;;9.40;5.55;;;;;;;;;;5091578;28;20027;-51
2024/01/21 02:38:39;;;;;;;9.45;5.60;;;;;;;;;;5091772;28;20024;-51
2024/01/21 02:41:04;;;;;;;9.00;5.32;;;;;;;;;;5091370;28;20097;-53
2024/01/21 02:43:30;;;;;;;9.60;5.60;;;;;;;;;;5091397;28;20028;-50
2024/01/21 02:45:56;;;;;;;9.73;5.72;;;;;;;;;;5091463;28;20028;-53
2024/01/21 02:48:22;;;;;;;8.82;5.20;;;;;;;;;;5091371;28;20418;-51
2024/01/21 02:50:48;;;;;;;9.55;5.60;;;;;;;;;;5091383;28;20020;-49
2024/01/21 02:53:15;;;;;;;9.05;5.35;;;;;;;;;;5071666;28;20052;-48
2024/01/21 02:55:42;;;;;;;9.10;5.43;;;;;;;;;;5091469;28;20024;-54
2024/01/21 02:58:08;;;;;;;9.43;5.63;;;;;;;;;;5091161;28;20024;-55
2024/01/21 03:00:34;;;;;;;9.82;5.80;;;;;;;;;;5078166;28;20603;-47
2024/01/21 03:03:00;;;;;;;9.68;5.75;;;;;;;;;;5072476;28;20027;-49
2024/01/21 03:05:26;;;;;;;9.55;5.65;;;;;;;;;;5091023;28;20024;-51
2024/01/21 03:07:52;;;;;;;9.30;5.50;;;;;;;;;;5090867;28;20024;-51
2024/01/21 03:10:18;;;;;;;9.57;5.80;;;;;;;;;;5090810;28;20043;-49
2024/01/21 03:12:44;;;;;;;9.55;5.70;;;;;;;;;;5090202;28;20020;-49
2024/01/21 03:15:10;;;;;;;10.18;6.00;;;;;;;;;;5090391;28;20028;-53
2024/01/21 03:17:36;;;;;;;9.90;5.85;;;;;;;;;;5090596;28;20024;-49
2024/01/21 03:20:02;;;;;;;10.15;6.00;;;;;;;;;;5074700;28;20077;-47
2024/01/21 03:22:28;;;;;;;9.80;5.80;;;;;;;;;;5052031;28;20035;-47
2024/01/21 03:24:54;;;;;;;9.80;5.80;;;;;;;;;;5085269;28;20030;-53
2024/01/21 03:27:20;;;;;;;9.98;5.90;;;;;;;;;;5089009;28;20095;-48
2024/01/21 03:29:46;;;;;;;9.80;5.85;;;;;;;;;;5070380;28;20467;-51
2024/01/21 03:32:12;;;;;;;9.88;5.88;;;;;;;;;;5086457;28;20090;-47
2024/01/21 03:34:42;;;;;;;9.77;5.78;;;;;;;;;;5090386;28;20031;-48
2024/01/21 03:37:08;;;;;;;9.30;5.50;;;;;;;;;;5090455;28;20044;-50
2024/01/21 03:39:34;;;;;;;9.30;5.50;;;;;;;;;;5078007;28;20458;-47
2024/01/21 03:42:00;;;;;;;9.35;5.50;;;;;;;;;;5069612;28;20067;-52
2024/01/21 03:44:26;;;;;;;9.73;5.72;;;;;;;;;;5070187;28;20100;-49
2024/01/21 03:46:52;;;;;;;9.82;5.80;;;;;;;;;;5069327;28;20466;-50
2024/01/21 03:49:18;;;;;;;9.50;5.60;;;;;;;;;;5069072;28;20021;-52
2024/01/21 03:51:44;;;;;;;9.90;5.88;;;;;;;;;;5069515;28;20340;-48
2024/01/21 03:54:10;;;;;;;9.98;5.90;;;;;;;;;;5070087;28;20036;-52
2024/01/21 03:56:36;;;;;;;10.30;6.07;;;;;;;;;;5074372;28;20503;-49
2024/01/21 03:59:02;;;;;;;9.63;5.70;;;;;;;;;;5089590;28;20115;-48
2024/01/21 04:01:28;;;;;;;9.50;5.63;;;;;;;;;;5089745;28;20729;-49
2024/01/21 04:03:54;;;;;;;9.70;5.70;;;;;;;;;;5090585;28;20027;-51
2024/01/21 04:06:20;;;;;;;9.55;5.70;;;;;;;;;;5080694;28;20103;-50
2024/01/21 04:08:46;;;;;;;9.38;5.60;;;;;;;;;;5084041;28;20398;-56
2024/01/21 04:11:12;;;;;;;9.45;5.60;;;;;;;;;;5089089;28;20021;-51
2024/01/21 04:13:39;;;;;;;9.80;5.78;;;;;;;;;;5070000;28;20129;-49
2024/01/21 04:16:05;;;;;;;9.55;5.70;;;;;;;;;;5086473;28;20020;-49
2024/01/21 04:18:32;;;;;;;10.20;6.25;;;;;;;;;;5090167;28;20020;-46
2024/01/21 04:21:00;;;;;;;9.55;5.63;;;;;;;;;;5089948;28;20353;-52
2024/01/21 04:23:26;;;;;;;10.00;5.90;;;;;;;;;;5071863;28;20042;-52
2024/01/21 04:25:52;;;;;;;10.15;6.00;;;;;;;;;;5072267;28;20028;-48
2024/01/21 04:28:18;;;;;;;9.98;5.90;;;;;;;;;;5073718;28;20024;-49
2024/01/21 04:30:45;;;;;;;9.90;5.85;;;;;;;;;;5094191;28;20076;-48
2024/01/21 04:33:11;;;;;;;9.95;5.85;;;;;;;;;;5075391;28;20024;-49
2024/01/21 04:35:37;;;;;;;9.68;5.72;;;;;;;;;;5094244;28;20099;-50
2024/01/21 04:38:03;;;;;;;10.00;5.90;;;;;;;;;;5093821;28;20481;-48
2024/01/21 04:40:29;;;;;;;9.88;5.82;;;;;;;;;;5093672;28;20038;-48
2024/01/21 04:42:55;;;;;;;10.02;5.90;;;;;;;;;;5075091;28;20028;-51
2024/01/21 04:45:21;;;;;;;9.77;5.80;;;;;;;;;;5076704;28;20028;-49
2024/01/21 04:47:47;;;;;;;9.55;5.60;;;;;;;;;;5095053;28;20056;-54
2024/01/21 04:50:13;;;;;;;10.10;5.95;;;;;;;;;;5093955;28;20047;-51
2024/01/21 04:52:39;;;;;;;9.60;5.80;;;;;;;;;;5084734;28;20020;-51
2024/01/21 04:55:05;;;;;;;9.90;5.80;;;;;;;;;;5094059;28;20533;-48
2024/01/21 04:57:31;;;;;;;9.98;5.90;;;;;;;;;;5075374;28;20478;-52
2024/01/21 04:59:58;;;;;;;10.55;6.20;;;;;;;;;;5094107;28;20039;-46
2024/01/21 05:02:24;;;;;;;10.45;6.10;;;;;;;;;;5074586;28;20709;-51
2024/01/21 05:04:50;;;;;;;10.93;6.38;;;;;;;;;;5093438;28;20055;-50
2024/01/21 05:07:16;;;;;;;10.35;6.10;;;;;;;;;;5093150;28;20072;-51
2024/01/21 05:09:43;;;;;;;10.27;6.07;;;;;;;;;;5093639;28;20427;-52
2024/01/21 05:12:09;;;;;;;11.10;6.53;;;;;;;;;;5092698;28;20056;-52
2024/01/21 05:14:35;;;;;;;10.20;6.00;;;;;;;;;;5076888;28;20052;-51
2024/01/21 05:17:01;;;;;;;10.65;6.28;;;;;;;;;;5092881;28;20101;-52
2024/01/21 05:19:27;;;;;;;10.98;6.47;;;;;;;;;;5073911;28;20078;-52
2024/01/21 05:21:53;;;;;;;11.00;6.45;;;;;;;;;;5086763;28;20028;-52
2024/01/21 05:24:19;;;;;;;10.77;6.32;;;;;;;;;;5093231;28;20048;-49
2024/01/21 05:26:45;;;;;;;10.93;6.43;;;;;;;;;;5074881;28;20094;-47
2024/01/21 05:29:11;;;;;;;10.90;6.40;;;;;;;;;;5093014;28;20691;-50
2024/01/21 05:31:38;;;;;;;10.70;6.30;;;;;;;;;;5092472;28;20016;-52
2024/01/21 05:34:04;;;;;;;11.13;6.53;;;;;;;;;;5093350;28;20505;-51
2024/01/21 05:36:30;;;;;;;10.88;6.38;;;;;;;;;;5092621;28;20089;-48
2024/01/21 05:38:56;;;;;;;11.00;6.50;;;;;;;;;;5074430;28;20024;-48
2024/01/21 05:41:22;;;;;;;11.13;6.72;;;;;;;;;;5091686;28;20123;-48
2024/01/21 05:43:48;;;;;;;12.00;7.28;;;;;;;;;;5092947;28;20020;-47
2024/01/21 05:46:14;;;;;;;10.63;6.25;;;;;;;;;;5092795;28;20069;-51
2024/01/21 05:48:40;;;;;;;10.48;6.15;;;;;;;;;;5092528;28;20024;-48
2024/01/21 05:51:06;;;;;;;10.55;6.50;;;;;;;;;;5091720;28;20020;-46
2024/01/21 05:53:32;;;;;;;10.80;6.38;;;;;;;;;;5091362;28;20054;-50
2024/01/21 05:55:58;;;;;;;10.52;6.20;;;;;;;;;;5092355;28;20024;-51
2024/01/21 05:58:24;;;;;;;10.15;6.00;;;;;;;;;;5092408;28;20047;-55
2024/01/21 06:00:50;;;;;;;10.30;6.10;;;;;;;;;;5091917;28;20077;-51
2024/01/21 06:03:16;;;;;;;11.27;6.85;;;;;;;;;;5073536;28;20490;-50
2024/01/21 06:05:42;;;;;;;10.48;6.15;;;;;;;;;;5074143;28;20033;-50
2024/01/21 06:08:08;;;;;;;10.82;6.40;;;;;;;;;;5092165;28;20153;-49
2024/01/21 06:10:34;;;;;;;10.52;6.13;;;;;;;;;;5092059;28;20020;-47
2024/01/21 06:13:00;;;;;;;10.93;6.40;;;;;;;;;;5091562;28;20028;-53
2024/01/21 06:15:26;;;;;;;10.10;6.00;;;;;;;;;;5092088;28;20072;-49
2024/01/21 06:17:52;;;;;;;10.23;6.00;;;;;;;;;;5092112;28;20032;-45
2024/01/21 06:20:18;;;;;;;10.80;6.30;;;;;;;;;;5074001;28;20055;-48
2024/01/21 06:22:44;;;;;;;10.70;6.32;;;;;;;;;;5086459;28;20100;-49
2024/01/21 06:25:11;;;;;;;11.25;6.60;;;;;;;;;;5053437;28;20128;-50
2024/01/21 06:27:37;;;;;;;10.68;6.30;;;;;;;;;;5083939;28;20024;-51
2024/01/21 06:30:18;;;;;;;11.13;6.50;;;;;;;;;;5091721;28;20020;-48
2024/01/21 06:32:44;;;;;;;12.20;7.40;;;;;;;;;;5072961;28;20027;-48
2024/01/21 06:35:11;;;;;;;11.43;6.70;;;;;;;;;;5091969;28;20024;-48
2024/01/21 06:37:37;;;;;;;11.40;6.80;;;;;;;;;;5092049;28;20030;-55
2024/01/21 06:40:04;;;;;;;10.80;6.38;;;;;;;;;;5091682;28;20032;-53
2024/01/21 06:42:30;;;;;;;11.00;6.50;;;;;;;;;;5086082;22;20095;-58
2024/01/21 06:44:56;;;;;;;11.30;6.63;;;;;;;;;;5029839;28;20049;-57
2024/01/21 06:47:22;;;;;;;13.60;7.63;;;;;;;;;;5029858;28;20034;-60
2024/01/21 06:49:48;;;;;;;11.70;6.90;;;;;;;;;;5029529;28;20024;-60
2024/01/21 06:52:14;;;;;;;12.00;7.00;;;;;;;;;;5028298;28;20502;-60
2024/01/21 06:54:40;;;;;;;12.10;7.18;;;;;;;;;;5029639;28;20425;-57
2024/01/21 06:57:07;;;;;;;11.90;7.38;;;;;;;;;;5029500;28;20022;-57
2024/01/21 06:59:33;;;;;;;11.35;6.70;;;;;;;;;;5029361;28;20025;-57
2024/01/21 07:01:59;;;;;;;11.88;6.95;;;;;;;;;;5011097;28;20025;-60
2024/01/21 07:04:24;;;;;;;11.80;6.90;;;;;;;;;;5029410;28;20061;-59
2024/01/21 07:06:52;;;;;;;11.65;6.82;;;;;;;;;;5029604;28;20122;-55
2024/01/21 07:09:18;;;;;;;11.60;6.90;;;;;;;;;;5029466;28;20494;-58
2024/01/21 07:11:44;;;;;;;12.00;7.00;;;;;;;;;;5028818;28;20112;-59
2024/01/21 07:14:10;;;;;;;11.93;7.00;;;;;;;;;;5028957;28;20083;-60
2024/01/21 07:16:36;;;;;;;12.05;7.07;;;;;;;;;;5029318;28;20025;-58
2024/01/21 07:19:03;;;;;;;12.98;7.57;;;;;;;;;;5029198;28;20120;-61
2024/01/21 07:21:30;;;;;;;12.70;7.40;;;;;;;;;;5010858;28;20029;-60
2024/01/21 07:23:56;;;;;;;14.70;8.38;;;;;;;;;;5029158;28;20029;-61
2024/01/21 07:26:23;;;;;;;13.07;8.05;;;;;;;;;;5028909;28;20032;-61
2024/01/21 07:28:49;;;;;;;12.60;7.30;;;;;;;;;;5028930;28;20032;-59
2024/01/21 07:31:17;;;;;;;12.63;7.35;;;;;;;;;;5028404;28;20048;-60
2024/01/21 07:33:43;;;;;;;12.70;7.40;;;;;;;;;;5028834;28;20081;-58
2024/01/21 07:36:09;;;;;;;12.70;7.40;;;;;;;;;;5028846;28;20432;-57
2024/01/21 07:38:35;;;;;;;14.15;8.65;;;;;;;;;;5028545;28;20026;-59
2024/01/21 07:41:02;;;;;;;12.40;7.63;;;;;;;;;;5028548;28;20079;-60
2024/01/21 07:43:30;;;;;;;12.18;7.07;;;;;;;;;;5027909;28;20122;-61
2024/01/21 07:45:56;;;;;;;13.93;7.85;;;;;;;;;;5028681;28;20056;-60
2024/01/21 07:48:22;;;;;;;12.45;7.38;;;;;;;;;;5028613;28;20052;-60
2024/01/21 07:50:48;;;;;;;12.07;7.35;;;;;;;;;;5028238;28;20488;-56
2024/01/21 07:53:14;;;;;;;13.75;7.78;;;;;;;;;;5027863;28;20068;-60
2024/01/21 07:55:40;;;;;;;13.25;8.15;;;;;;;;;;5010951;28;20047;-62
2024/01/21 07:58:06;;;;;;;12.25;7.15;;;;;;;;;;5028524;28;20036;-60
2024/01/21 08:00:32;;;;;;;13.60;7.60;;;;;;;;;;5028510;28;20021;-58
2024/01/21 08:02:58;;;;;;;14.02;9.25;;;;;;;;;;5028027;28;20061;-59
2024/01/21 08:05:24;;;;;;;12.65;7.38;;;;;;;;;;5010735;28;20049;-59
2024/01/21 08:07:50;;;;;;;13.43;7.70;;;;;;;;;;5028848;28;20017;-60
2024/01/21 08:10:16;;;;;;;12.95;7.63;;;;;;;;;;5028193;28;20040;-60
2024/01/21 08:12:42;;;;;;;12.23;7.13;;;;;;;;;;5027628;28;20017;-57
2024/01/21 08:15:08;;;;;;;12.63;7.40;;;;;;;;;;5028308;28;20025;-57
2024/01/21 08:17:34;;;;;;;12.75;7.68;;;;;;;;;;5010598;28;20039;-59
2024/01/21 08:20:00;;;;;;;12.50;7.30;;;;;;;;;;5028428;28;20022;-59
2024/01/21 08:22:26;;;;;;;12.80;7.50;;;;;;;;;;5009824;28;20061;-62
2024/01/21 08:24:54;;;;;;;12.57;7.35;;;;;;;;;;5028235;28;20392;-59
2024/01/21 08:27:20;;;;;;;12.40;7.20;;;;;;;;;;5028238;28;20021;-60
2024/01/21 08:29:46;;;;;;;13.00;7.60;;;;;;;;;;5028392;28;20030;-60
2024/01/21 08:32:12;;;;;;;12.63;7.38;;;;;;;;;;5009666;28;20393;-60
2024/01/21 08:34:38;;;;;;;12.73;7.43;;;;;;;;;;5028574;28;20018;-59
2024/01/21 08:37:05;;;;;;;12.50;7.30;;;;;;;;;;5010843;28;20029;-58
2024/01/21 08:39:31;;;;;;;12.90;7.65;;;;;;;;;;5010637;28;20176;-60
2024/01/21 08:41:57;;;;;;;13.02;7.93;;;;;;;;;;5027379;28;20513;-62
2024/01/21 08:44:23;;;;;;;17.95;7.90;;;;;;;;;;5010915;28;20038;-61
2024/01/21 08:46:49;;;;;;;12.88;7.53;;;;;;;;;;5028603;28;20231;-60
2024/01/21 08:49:15;;;;;;;13.20;8.10;;;;;;;;;;5010564;28;20146;-59
2024/01/21 08:51:41;;;;;;;14.07;8.82;;;;;;;;;;5027720;28;20468;-58
2024/01/21 08:54:07;;;;;;;12.48;7.38;;;;;;;;;;5010342;28;20044;-58
2024/01/21 08:56:35;;;;;;;12.88;7.50;;;;;;;;;;5028008;28;20390;-51
2024/01/21 08:59:01;;;;;;;12.98;7.65;;;;;;;;;;5027994;28;20103;-50
2024/01/21 09:01:27;;;;;;;12.82;7.50;;;;;;;;;;5004884;28;20357;-56
2024/01/21 09:03:53;;;;;;;12.80;7.53;;;;;;;;;;5019557;28;20030;-50
2024/01/21 09:06:19;;;;;;;12.60;7.30;;;;;;;;;;5006582;28;20067;-53
2024/01/21 09:08:45;;;;;;;13.65;8.07;;;;;;;;;;5008040;28;20404;-53
2024/01/21 09:11:12;;;;;;;13.98;8.25;;;;;;;;;;5026332;28;20105;-56
2024/01/21 09:13:38;;;;;;;12.80;7.88;;;;;;;;;;5027844;28;20467;-52
2024/01/21 09:16:05;;;;;;;12.75;7.70;;;;;;;;;;5013385;28;20077;-53
2024/01/21 09:18:31;;;;;;;13.05;7.63;;;;;;;;;;5020941;28;20169;-50
2024/01/21 09:20:58;;;;;;;13.70;8.98;;;;;;;;;;5010925;28;20022;-50
2024/01/21 09:23:25;;;;;;;12.18;7.10;;;;;;;;;;5010564;28;20395;-52
2024/01/21 09:25:51;;;;;;;12.98;7.65;;;;;;;;;;5011321;28;20439;-53
2024/01/21 09:28:18;;;;;;;13.13;8.07;;;;;;;;;;5011041;28;20034;-54
2024/01/21 09:30:44;;;;;;;12.63;7.30;;;;;;;;;;5010745;28;20310;-55
2024/01/21 09:33:09;;;;;;;12.60;7.40;;;;;;;;;;5010343;28;20097;-57
2024/01/21 09:35:36;;;;;;;13.07;7.68;;;;;;;;;;5020599;28;20026;-53
2024/01/21 09:38:02;;;;;;;12.55;7.32;;;;;;;;;;5030614;28;20025;-58
2024/01/21 09:40:28;;;;;;;12.23;7.10;;;;;;;;;;5019859;28;20110;-53
2024/01/21 09:42:54;;;;;;;13.07;7.80;;;;;;;;;;5010299;28;20060;-54
2024/01/21 09:45:22;;;;;;;12.80;7.43;;;;;;;;;;5010744;28;20030;-57
2024/01/21 09:47:48;;;;;;;12.40;7.23;;;;;;;;;;5010920;28;20037;-51
2024/01/21 09:50:15;;;;;;;12.95;8.00;;;;;;;;;;5010579;28;20033;-53
2024/01/21 09:52:41;;;;;;;12.40;7.30;;;;;;;;;;5009908;28;20026;-56
2024/01/21 09:55:07;;;;;;;13.00;7.70;;;;;;;;;;5010478;28;20084;-54
2024/01/21 09:57:35;;;;;;;12.55;7.28;;;;;;;;;;4993216;28;20032;-54
2024/01/21 10:00:02;;;;;;;;;;;;;;;;;;5011390;28;20022;-51
2024/01/21 10:02:28;;;;;;;13.02;7.55;;;;;;;;;;5010207;28;20075;-56
2024/01/21 10:04:54;;;;;;;12.43;7.22;;;;;;;;;;5010658;28;20026;-57
2024/01/21 10:07:20;;;;;;;14.65;8.23;;;;;;;;;;5010571;28;20542;-57
2024/01/21 10:09:53;;;;;;;12.90;7.53;;;;;;;;;;5010599;28;20054;-57
2024/01/21 10:12:19;;;;;;;13.27;7.97;;;;;;;;;;5009972;28;20022;-58
2024/01/21 10:14:45;;;;;;;12.70;7.45;;;;;;;;;;5010545;28;20040;-57
2024/01/21 10:17:11;;;;;;;12.35;7.30;;;;;;;;;;5010665;28;20069;-53
2024/01/21 10:19:37;;;;;;;12.60;7.47;;;;;;;;;;5010244;28;20038;-58
2024/01/21 10:22:10;;;;;;;13.60;9.95;;;;;;;;;;5009613;28;20065;-56
2024/01/21 10:24:39;;;;;;;12.48;7.30;;;;;;;;;;5009854;28;20022;-57
2024/01/21 10:27:07;;;;;;;13.55;8.82;;;;;;;;;;5008920;28;20021;-58
2024/01/21 10:29:33;;;;;;;11.98;7.00;;;;;;;;;;5010042;28;20030;-56
2024/01/21 10:31:59;;;;;;;12.35;7.35;;;;;;;;;;5007487;28;20181;-48
2024/01/21 10:34:27;;;;;;;12.88;7.63;;;;;;;;;;5005676;28;20069;-52
2024/01/21 10:36:53;;;;;;;12.20;7.18;;;;;;;;;;5023508;28;20030;-56
2024/01/21 10:39:20;;;;;;;12.20;7.10;;;;;;;;;;5029427;28;20045;-57
2024/01/21 10:41:46;;;;;;;12.32;7.20;;;;;;;;;;5028847;28;20249;-52
2024/01/21 10:44:13;;;;;;;12.23;7.07;;;;;;;;;;5028635;28;20031;-53
2024/01/21 10:46:41;;;;;;;12.27;7.15;;;;;;;;;;5029163;28;20060;-53
2024/01/21 10:49:09;;;;;;;12.40;7.30;;;;;;;;;;5028500;28;20079;-54
2024/01/21 10:51:35;;;;;;;12.98;7.20;;;;;;;;;;5010181;28;20041;-53
2024/01/21 10:54:02;;;;;;;12.43;7.35;;;;;;;;;;5028689;28;20036;-54
2024/01/21 10:56:28;;;;;;;14.55;9.48;;;;;;;;;;5029611;28;20076;-54
2024/01/21 10:58:54;;;;;;;12.70;7.60;;;;;;;;;;5029051;28;20056;-55
2024/01/21 11:01:21;;;;;;;12.77;7.50;;;;;;;;;;5028310;28;20091;-56
2024/01/21 11:03:48;;;;;;;12.48;7.30;;;;;;;;;;5010856;28;20445;-56
2024/01/21 11:06:15;;;;;;;12.60;7.35;;;;;;;;;;5029084;28;20072;-51
2024/01/21 11:08:45;;;;;;;16.70;9.77;;;;;;;;;;5011137;28;20021;-54
2024/01/21 11:11:29;;;;;;;13.10;8.88;;;;;;;;;;5028481;28;20076;-58
2024/01/21 11:13:56;;;;;;;12.70;7.55;;;;;;;;;;5028946;28;20021;-53
2024/01/21 11:16:30;;;;;;;13.63;8.10;;;;;;;;;;5028547;28;20030;-54
2024/01/21 11:18:59;;;;;;;12.50;7.65;;;;;;;;;;5028845;28;20021;-52
2024/01/21 11:21:25;;;;;;;12.13;7.00;;;;;;;;;;5027960;28;20427;-56
2024/01/21 11:24:04;;;;;;;12.27;7.18;;;;;;;;;;5028560;28;20025;-56
2024/01/21 11:26:31;;;;;;;13.60;9.20;;;;;;;;;;5028804;28;20025;-53
2024/01/21 11:28:58;;;;;;;12.98;7.30;;;;;;;;;;5028728;28;20029;-54
2024/01/21 11:31:25;;;;;;;16.60;8.23;;;;;;;;;;5028341;28;20548;-52
2024/01/21 11:34:04;;;;;;;12.30;7.25;;;;;;;;;;5010356;28;20509;-54
2024/01/21 11:36:31;;;;;;;12.30;7.95;;;;;;;;;;5028061;28;20152;-56
2024/01/21 11:38:59;;;;;;;11.73;6.85;;;;;;;;;;5028282;28;20372;-54
2024/01/21 11:41:30;;;;;;;11.85;6.90;;;;;;;;;;5027609;28;20025;-54
2024/01/21 11:43:56;;;;;;;13.07;7.80;;;;;;;;;;5027649;28;20033;-56
2024/01/21 11:46:22;;;;;;;12.32;7.40;;;;;;;;;;5028174;28;20116;-53
2024/01/21 11:48:48;;;;;;;12.90;7.88;;;;;;;;;;5027916;28;20029;-51
2024/01/21 11:51:14;;;;;;;11.20;6.55;;;;;;;;;;5027836;28;20037;-56
2024/01/21 11:53:40;;;;;;;14.77;9.15;;;;;;;;;;5028445;28;20029;-58
2024/01/21 11:56:06;;;;;;;14.95;7.93;;;;;;;;;;5012671;28;20041;-55
2024/01/21 11:58:33;;;;;;;12.75;7.32;;;;;;;;;;5019128;28;20538;-57
2024/01/21 12:00:59;;;;;;;11.35;6.65;;;;;;;;;;5013128;28;20077;-52
2024/01/21 12:03:28;;;;;;;10.55;6.22;;;;;;;;;;5015211;28;20030;-54
2024/01/21 12:05:54;;;;;;;11.40;7.28;;;;;;;;;;5010146;28;20018;-48
2024/01/21 12:08:20;;;;;;;11.88;6.78;;;;;;;;;;5009967;28;20038;-51
2024/01/21 12:10:46;;;;;;;11.30;6.50;;;;;;;;;;5026277;28;20029;-53
2024/01/21 12:13:13;;;;;;;10.98;6.20;;;;;;;;;;5026089;28;20022;-53
2024/01/21 12:15:39;;;;;;;12.45;6.90;;;;;;;;;;5026669;28;20396;-57
2024/01/21 12:18:05;;;;;;;13.70;7.93;;;;;;;;;;5008727;28;20032;-50
2024/01/21 12:20:31;;;;;;;11.30;6.78;;;;;;;;;;5026390;28;20275;-53
2024/01/21 12:22:57;;;;;;;11.25;6.60;;;;;;;;;;5025808;28;20045;-55
2024/01/21 12:25:24;;;;;;;9.88;5.82;;;;;;;;;;5027508;28;20076;-55
2024/01/21 12:27:56;;;;;;;11.68;6.70;;;;;;;;;;5028188;28;20052;-54
2024/01/21 12:30:24;;;;;;;9.85;5.80;;;;;;;;;;5028300;28;20029;-57
2024/01/21 12:32:50;;;;;;;9.80;5.70;;;;;;;;;;5027570;28;20032;-53
2024/01/21 12:35:16;;;;;;;17.50;7.25;;;;;;;;;;5010466;28;20038;-58
2024/01/21 12:37:42;;;;;;;11.98;6.80;;;;;;;;;;5028355;28;20025;-56
2024/01/21 12:40:09;;;;;;;11.30;6.70;;;;;;;;;;5028362;28;20044;-54
2024/01/21 12:42:35;;;;;;;11.52;6.97;;;;;;;;;;5010244;28;20464;-57
2024/01/21 12:45:01;;;;;;;11.50;6.55;;;;;;;;;;5028515;28;20420;-53
2024/01/21 12:47:27;;;;;;;19.30;7.28;;;;;;;;;;5028440;28;20125;-54
2024/01/21 12:49:53;;;;;;;11.38;6.90;;;;;;;;;;5029704;28;20045;-54
2024/01/21 12:52:19;;;;;;;10.48;6.20;;;;;;;;;;5023094;28;20040;-54
2024/01/21 12:54:45;;;;;;;11.65;6.60;;;;;;;;;;5018297;28;20021;-53
2024/01/21 12:57:11;;;;;;;10.70;6.25;;;;;;;;;;5011798;28;20488;-55
2024/01/21 12:59:37;;;;;;;9.60;5.80;;;;;;;;;;5002449;28;20022;-55
2024/01/21 13:02:03;;;;;;;10.25;6.40;;;;;;;;;;5011227;28;20030;-51
2024/01/21 13:04:29;;;;;;;9.52;5.63;;;;;;;;;;5011281;28;20036;-54
2024/01/21 13:06:55;;;;;;;10.45;6.18;;;;;;;;;;5012720;28;20093;-52
2024/01/21 13:09:21;;;;;;;11.80;6.25;;;;;;;;;;5021935;28;20109;-56
2024/01/21 13:11:47;;;;;;;11.35;6.75;;;;;;;;;;4993387;28;20420;-57
2024/01/21 13:14:13;;;;;;;10.52;6.18;;;;;;;;;;4994072;28;20140;-55
2024/01/21 13:16:39;;;;;;;11.70;6.97;;;;;;;;;;5011256;28;20106;-57
2024/01/21 13:19:05;;;;;;;10.23;5.93;;;;;;;;;;5011352;28;20398;-56
2024/01/21 13:21:31;;;;;;;9.43;5.60;;;;;;;;;;5010525;28;20036;-57
2024/01/21 13:23:58;;;;;;;12.15;6.65;;;;;;;;;;5011137;28;20045;-54
2024/01/21 13:26:25;;;;;;;10.93;5.97;;;;;;;;;;5011393;28;20038;-55
2024/01/21 13:31:52;;;;;;;15.65;7.45;;;;;;;;;;4929719;29;20123;-56
2024/01/21 13:34:18;;;;;;;11.25;6.35;;;;;;;;;;4994176;28;20453;-54
2024/01/21 13:36:44;;;;;;;12.70;6.88;;;;;;;;;;5011620;28;20056;-51
2024/01/21 13:39:11;;;;;;;11.95;6.55;;;;;;;;;;5011522;28;20499;-51
2024/01/21 13:41:37;;;;;;;9.60;5.50;;;;;;;;;;5010723;28;20048;-54
2024/01/21 13:44:03;;;;;;;9.15;5.80;;;;;;;;;;4993401;28;20065;-57
2024/01/21 13:46:29;;;;;;;8.77;5.20;;;;;;;;;;5011425;28;20061;-54
2024/01/21 13:48:55;;;;;;;9.55;5.50;;;;;;;;;;5014178;28;20470;-56
2024/01/21 13:51:21;;;;;;;9.32;5.50;;;;;;;;;;5030132;28;20091;-55
2024/01/21 13:53:47;;;;;;;10.27;5.40;;;;;;;;;;5030462;28;20044;-55
2024/01/21 13:56:14;;;;;;;8.90;5.28;;;;;;;;;;5025577;28;20048;-56
2024/01/21 13:58:40;;;;;;;9.07;5.30;;;;;;;;;;5018955;28;20091;-55
2024/01/21 14:01:06;;;;;;;10.13;5.97;;;;;;;;;;5012608;28;20259;-54
2024/01/21 14:03:32;;;;;;;9.13;5.40;;;;;;;;;;5012921;28;20033;-56
2024/01/21 14:05:58;;;;;;;12.18;6.40;;;;;;;;;;5030225;28;20040;-56
2024/01/21 14:08:24;;;;;;;9.23;5.50;;;;;;;;;;5023715;28;20022;-52
2024/01/21 14:10:51;;;;;;;13.68;6.95;;;;;;;;;;5022048;28;20024;-54
2024/01/21 14:13:17;;;;;;;9.68;5.80;;;;;;;;;;5017399;28;20060;-55
2024/01/21 14:15:44;;;;;;;10.50;6.28;;;;;;;;;;5028834;28;20037;-55
2024/01/21 14:18:11;;;;;;;10.38;6.57;;;;;;;;;;5005253;28;20096;-50
2024/01/21 14:20:38;;;;;;;9.43;5.60;;;;;;;;;;5015256;28;20018;-50
2024/01/21 14:23:04;;;;;;;9.55;5.60;;;;;;;;;;5018837;28;20483;-52
2024/01/21 14:25:39;;;;;;;9.63;5.65;;;;;;;;;;5019012;28;20507;-51
2024/01/21 14:28:05;;;;;;;16.13;9.93;;;;;;;;;;5020298;28;20025;-52
2024/01/21 14:30:33;;;;;;;11.63;7.03;;;;;;;;;;5024986;28;20542;-54
2024/01/21 14:32:59;;;;;;;10.48;6.53;;;;;;;;;;5009483;28;20087;-54